createdAt,value
2022-10-21T00:00:25.224Z,9.40
2022-10-21T00:08:06.068Z,9.30
2022-10-21T00:18:14.976Z,9.40
2022-10-21T00:20:58.667Z,9.40
2022-10-21T00:23:44.660Z,9.40
2022-10-21T00:26:26.006Z,9.30
2022-10-21T00:31:41.029Z,9.30
2022-10-21T00:47:14.889Z,9.30
2022-10-21T00:50:03.312Z,9.30
2022-10-21T01:00:22.000Z,9.20
2022-10-21T01:03:12.107Z,9.20
2022-10-21T01:05:48.058Z,9.20
2022-10-21T01:10:57.279Z,9.20
2022-10-21T01:13:51.438Z,9.20
2022-10-21T01:19:24.283Z,9.20
2022-10-21T01:22:26.813Z,9.10
2022-10-21T01:27:56.314Z,9.10
2022-10-21T01:30:47.079Z,9.10
2022-10-21T01:33:38.457Z,9.10
2022-10-21T01:39:13.183Z,9.10
2022-10-21T01:42:14.722Z,9.10
2022-10-21T01:45:02.995Z,9.10
2022-10-21T01:48:03.694Z,9.10
2022-10-21T01:50:42.207Z,9.10
2022-10-21T01:53:28.518Z,9.10
2022-10-21T01:56:05.001Z,9.10
2022-10-21T01:58:48.839Z,9.10
2022-10-21T02:01:19.315Z,9.10
2022-10-21T02:03:56.426Z,9.10
2022-10-21T02:11:55.127Z,9.10
2022-10-21T02:14:47.850Z,9.00
2022-10-21T02:17:26.773Z,11.00
2022-10-21T02:20:34.051Z,9.10
2022-10-21T02:23:09.488Z,9.00
2022-10-21T02:25:42.747Z,9.00
2022-10-21T02:28:20.922Z,9.00
2022-10-21T02:31:10.965Z,8.90
2022-10-21T02:34:00.709Z,9.00
2022-10-21T02:36:52.427Z,8.90
2022-10-21T02:39:40.313Z,9.00
2022-10-21T02:42:24.388Z,9.00
2022-10-21T02:44:53.348Z,8.90
2022-10-21T02:47:29.131Z,9.00
2022-10-21T02:52:31.738Z,9.00
2022-10-21T03:00:07.128Z,9.00
2022-10-21T03:12:49.589Z,9.20
2022-10-21T03:40:17.273Z,9.50
2022-10-21T03:47:41.950Z,10.60
2022-10-21T03:55:16.395Z,9.60
2022-10-21T03:57:46.996Z,9.50
2022-10-21T04:10:10.340Z,9.50
2022-10-21T04:15:13.767Z,9.60
2022-10-21T04:20:10.866Z,9.60
2022-10-21T05:07:09.098Z,9.70
2022-10-21T05:09:36.172Z,10.70
2022-10-21T05:12:03.305Z,9.70
2022-10-21T05:16:58.203Z,9.70
2022-10-21T05:24:38.222Z,9.80
2022-10-21T05:56:57.561Z,9.90
2022-10-21T06:06:50.572Z,10.20
2022-10-21T06:16:49.468Z,9.90
2022-10-21T06:39:06.606Z,9.90
2022-10-21T06:51:25.180Z,10.00
2022-10-21T06:53:54.754Z,10.80
2022-10-21T07:01:34.910Z,10.10
2022-10-21T07:04:09.539Z,10.20
2022-10-21T07:09:12.883Z,10.20
2022-10-21T07:14:39.125Z,10.30
2022-10-21T07:17:13.094Z,8.50
2022-10-21T07:19:40.854Z,11.90
2022-10-21T07:23:01.227Z,10.50
2022-10-21T07:28:59.324Z,10.50
2022-10-21T07:32:09.683Z,10.50
2022-10-21T07:42:14.644Z,10.60
2022-10-21T07:49:58.036Z,10.80
2022-10-21T07:52:24.896Z,10.80
2022-10-21T07:54:52.007Z,10.80
2022-10-21T07:57:18.973Z,10.80
2022-10-21T07:59:45.845Z,10.80
2022-10-21T08:02:14.939Z,10.90
2022-10-21T08:04:41.805Z,10.80
2022-10-21T08:07:10.390Z,10.90
2022-10-21T08:09:40.151Z,10.90
2022-10-21T08:12:12.929Z,11.00
2022-10-21T08:14:42.279Z,11.00
2022-10-21T08:17:09.259Z,11.00
2022-10-21T08:19:36.187Z,11.10
2022-10-21T08:22:03.159Z,11.10
2022-10-21T08:24:30.036Z,11.10
2022-10-21T08:26:56.999Z,11.10
2022-10-21T08:29:24.580Z,11.10
2022-10-21T08:31:51.498Z,11.10
2022-10-21T08:34:18.567Z,11.10
2022-10-21T08:36:45.388Z,11.10
2022-10-21T08:39:12.647Z,11.10
2022-10-21T08:42:11.516Z,11.10
2022-10-21T08:44:44.503Z,11.10
2022-10-21T08:47:32.767Z,11.20
2022-10-21T08:50:04.343Z,11.30
2022-10-21T08:52:58.419Z,11.30
2022-10-21T08:55:31.832Z,11.40
2022-10-21T08:58:00.592Z,11.40
2022-10-21T09:00:34.515Z,11.40
2022-10-21T09:03:23.223Z,11.50
2022-10-21T09:06:07.467Z,11.50
2022-10-21T09:09:11.102Z,11.50
2022-10-21T09:11:54.332Z,11.50
2022-10-21T09:14:36.091Z,11.40
2022-10-21T09:17:31.024Z,11.50
2022-10-21T09:20:30.141Z,11.50
2022-10-21T09:23:20.403Z,11.40
2022-10-21T09:25:56.175Z,11.50
2022-10-21T09:28:24.588Z,11.50
2022-10-21T09:30:53.271Z,11.40
2022-10-21T09:33:24.526Z,11.50
2022-10-21T09:35:58.123Z,11.40
2022-10-21T09:38:41.523Z,11.30
2022-10-21T09:43:50.009Z,11.40
2022-10-21T09:46:17.621Z,11.40
2022-10-21T09:49:16.313Z,11.40
2022-10-21T09:51:40.093Z,11.50
2022-10-21T09:54:16.142Z,11.50
2022-10-21T09:56:52.701Z,11.60
2022-10-21T09:59:22.518Z,11.60
2022-10-21T10:01:49.641Z,11.70
2022-10-21T10:04:32.795Z,11.90
2022-10-21T10:07:27.866Z,11.80
2022-10-21T10:09:54.948Z,12.00
2022-10-21T10:12:24.985Z,12.10
2022-10-21T10:14:51.786Z,12.10
2022-10-21T10:17:40.696Z,12.20
2022-10-21T10:20:13.958Z,12.40
2022-10-21T10:22:47.930Z,12.40
2022-10-21T10:25:14.770Z,12.50
2022-10-21T10:28:00.220Z,12.60
2022-10-21T10:30:42.658Z,12.70
2022-10-21T10:33:17.140Z,12.90
2022-10-21T10:35:54.518Z,13.00
2022-10-21T10:38:36.357Z,13.20
2022-10-21T10:41:52.921Z,13.30
2022-10-21T10:44:36.747Z,13.40
2022-10-21T10:47:05.652Z,13.40
2022-10-21T10:49:39.415Z,13.40
2022-10-21T10:52:12.587Z,13.40
2022-10-21T10:54:41.819Z,13.40
2022-10-21T10:57:34.317Z,13.50
2022-10-21T11:00:21.359Z,13.50
2022-10-21T11:03:13.579Z,13.60
2022-10-21T11:05:45.074Z,13.70
2022-10-21T11:08:34.335Z,13.70
2022-10-21T11:11:06.905Z,13.70
2022-10-21T11:13:37.910Z,13.60
2022-10-21T11:16:12.247Z,13.70
2022-10-21T11:19:03.841Z,13.70
2022-10-21T11:22:21.043Z,13.70
2022-10-21T11:25:12.704Z,13.70
2022-10-21T11:28:06.126Z,13.70
2022-10-21T11:30:54.524Z,13.90
2022-10-21T11:33:35.264Z,14.10
2022-10-21T11:36:07.960Z,14.30
2022-10-21T11:38:43.124Z,14.60
2022-10-21T11:41:33.926Z,15.00
2022-10-21T11:44:38.411Z,15.30
2022-10-21T11:47:20.293Z,15.60
2022-10-21T11:50:21.492Z,15.80
2022-10-21T11:53:12.421Z,15.80
2022-10-21T11:55:45.370Z,15.70
2022-10-21T11:58:36.545Z,15.50
2022-10-21T12:01:15.342Z,15.30
2022-10-21T12:04:19.274Z,15.00
2022-10-21T12:07:07.659Z,15.00
2022-10-21T12:09:44.321Z,15.00
2022-10-21T12:12:18.295Z,14.90
2022-10-21T12:14:48.960Z,14.80
2022-10-21T12:17:21.925Z,14.70
2022-10-21T12:20:06.306Z,14.70
2022-10-21T12:22:34.796Z,14.70
2022-10-21T12:25:10.843Z,14.70
2022-10-21T12:27:52.733Z,14.80
2022-10-21T12:30:31.475Z,14.80
2022-10-21T12:33:13.704Z,14.80
2022-10-21T12:38:49.249Z,14.80
2022-10-21T12:41:28.160Z,14.90
2022-10-21T12:44:00.845Z,15.00
2022-10-21T12:46:51.297Z,15.00
2022-10-21T12:49:35.899Z,15.20
2022-10-21T12:52:02.770Z,15.20
2022-10-21T12:54:39.118Z,15.30
2022-10-21T12:57:22.392Z,15.30
2022-10-21T12:59:55.522Z,15.40
2022-10-21T13:02:27.057Z,15.40
2022-10-21T13:04:56.626Z,15.50
2022-10-21T13:07:27.973Z,15.40
2022-10-21T13:09:55.158Z,15.40
2022-10-21T13:12:24.763Z,15.50
2022-10-21T13:14:54.730Z,15.60
2022-10-21T13:17:21.810Z,15.60
2022-10-21T13:19:49.860Z,15.60
2022-10-21T13:22:22.860Z,15.60
2022-10-21T13:24:50.210Z,15.60
2022-10-21T13:27:29.939Z,15.70
2022-10-21T13:29:58.280Z,15.70
2022-10-21T13:32:28.252Z,15.70
2022-10-21T13:35:09.634Z,15.80
2022-10-21T13:37:40.980Z,15.70
2022-10-21T13:40:15.751Z,15.60
2022-10-21T13:43:09.246Z,15.70
2022-10-21T13:45:50.323Z,15.70
2022-10-21T13:48:20.080Z,15.70
2022-10-21T13:50:50.449Z,15.80
2022-10-21T13:53:17.353Z,15.70
2022-10-21T13:56:02.739Z,15.70
2022-10-21T13:58:35.971Z,15.70
2022-10-21T14:01:18.591Z,15.70
2022-10-21T14:06:36.181Z,15.70
2022-10-21T14:09:08.135Z,15.60
2022-10-21T14:11:42.405Z,15.60
2022-10-21T14:14:13.248Z,15.50
2022-10-21T14:16:43.046Z,15.30
2022-10-21T14:19:16.959Z,15.40
2022-10-21T14:21:46.455Z,15.30
2022-10-21T14:24:36.033Z,15.30
2022-10-21T14:27:03.752Z,15.10
2022-10-21T14:29:33.762Z,15.10
2022-10-21T14:32:02.244Z,15.10
2022-10-21T14:34:32.342Z,15.10
2022-10-21T14:37:11.837Z,15.10
2022-10-21T14:39:39.607Z,15.10
2022-10-21T14:42:17.682Z,15.10
2022-10-21T14:44:46.357Z,15.00
2022-10-21T14:47:25.716Z,15.00
2022-10-21T14:49:59.803Z,14.90
2022-10-21T14:52:35.561Z,14.80
2022-10-21T14:55:10.349Z,14.80
2022-10-21T14:57:51.497Z,14.80
2022-10-21T15:00:31.609Z,14.80
2022-10-21T15:03:00.367Z,14.70
2022-10-21T15:05:46.550Z,14.70
2022-10-21T15:08:15.609Z,14.70
2022-10-21T15:10:43.961Z,14.70
2022-10-21T15:13:18.845Z,14.50
2022-10-21T15:15:49.687Z,14.60
2022-10-21T15:18:22.587Z,14.60
2022-10-21T15:20:57.543Z,14.50
2022-10-21T15:23:29.236Z,14.50
2022-10-21T15:26:00.494Z,14.40
2022-10-21T15:28:32.961Z,14.40
2022-10-21T15:31:02.276Z,14.20
2022-10-21T15:33:29.309Z,14.30
2022-10-21T15:36:05.607Z,14.20
2022-10-21T15:38:32.486Z,14.20
2022-10-21T15:40:59.437Z,14.10
2022-10-21T15:43:27.668Z,14.10
2022-10-21T15:45:54.538Z,14.00
2022-10-21T15:48:23.089Z,14.00
2022-10-21T15:50:51.458Z,14.00
2022-10-21T15:53:18.458Z,13.90
2022-10-21T15:55:47.669Z,13.90
2022-10-21T15:58:14.526Z,14.80
2022-10-21T16:00:41.475Z,13.60
2022-10-21T16:03:08.539Z,13.80
2022-10-21T16:05:35.465Z,13.80
2022-10-21T16:08:02.358Z,14.00
2022-10-21T16:10:34.963Z,13.80
2022-10-21T16:13:02.673Z,13.70
2022-10-21T16:15:29.754Z,13.70
2022-10-21T16:17:59.384Z,13.70
2022-10-21T16:20:31.837Z,13.60
2022-10-21T16:23:02.122Z,13.60
2022-10-21T16:25:31.673Z,13.60
2022-10-21T16:27:58.904Z,13.60
2022-10-21T16:30:28.585Z,13.50
2022-10-21T16:32:57.591Z,13.40
2022-10-21T16:35:25.005Z,13.50
2022-10-21T16:37:52.415Z,13.40
2022-10-21T16:40:27.095Z,13.40
2022-10-21T16:42:53.985Z,13.40
2022-10-21T16:45:22.803Z,13.50
2022-10-21T16:47:53.056Z,13.30
2022-10-21T16:50:20.035Z,13.30
2022-10-21T16:52:46.882Z,13.30
2022-10-21T16:55:14.674Z,13.30
2022-10-21T16:57:42.314Z,13.20
2022-10-21T17:00:10.278Z,13.30
2022-10-21T17:02:40.243Z,13.20
2022-10-21T17:05:08.339Z,13.10
2022-10-21T17:07:35.364Z,13.10
2022-10-21T17:10:02.451Z,13.10
2022-10-21T17:12:32.518Z,13.00
2022-10-21T17:15:00.034Z,13.00
2022-10-21T17:17:27.177Z,13.00
2022-10-21T17:19:54.112Z,13.00
2022-10-21T17:22:21.069Z,12.90
2022-10-21T17:24:48.398Z,12.90
2022-10-21T17:27:19.520Z,12.80
2022-10-21T17:29:46.776Z,13.00
2022-10-21T17:32:13.655Z,13.00
2022-10-21T17:34:41.392Z,13.00
2022-10-21T17:37:09.988Z,13.00
2022-10-21T17:39:37.022Z,13.00
2022-10-21T17:42:04.440Z,13.10
2022-10-21T17:44:31.431Z,13.10
2022-10-21T17:46:58.259Z,13.10
2022-10-21T17:49:26.340Z,13.20
2022-10-21T17:51:53.251Z,13.20
2022-10-21T17:54:22.959Z,13.20
2022-10-21T17:56:53.417Z,13.30
2022-10-21T17:59:20.310Z,13.50
2022-10-21T18:01:47.873Z,13.30
2022-10-21T18:04:14.816Z,13.40
2022-10-21T18:06:41.795Z,13.40
2022-10-21T18:09:09.420Z,13.50
2022-10-21T18:11:37.091Z,13.40
2022-10-21T18:14:04.603Z,13.50
2022-10-21T18:16:32.182Z,13.50
2022-10-21T18:19:01.961Z,13.50
2022-10-21T18:21:30.130Z,13.50
2022-10-21T18:23:57.455Z,13.40
2022-10-21T18:26:27.970Z,13.50
2022-10-21T18:28:57.674Z,13.40
2022-10-21T18:31:28.252Z,13.40
2022-10-21T18:33:56.598Z,13.40
2022-10-21T18:36:25.044Z,13.50
2022-10-21T18:38:51.935Z,13.50
2022-10-21T18:41:21.235Z,13.50
2022-10-21T18:43:50.724Z,13.50
2022-10-21T18:46:20.500Z,13.50
2022-10-21T18:48:49.072Z,13.50
2022-10-21T18:51:20.981Z,13.50
2022-10-21T18:53:50.090Z,13.50
2022-10-21T18:56:20.047Z,13.50
2022-10-21T18:58:47.137Z,13.50
2022-10-21T19:01:15.154Z,13.40
2022-10-21T19:03:43.426Z,13.40
2022-10-21T19:06:30.355Z,13.40
2022-10-21T19:09:01.037Z,13.40
2022-10-21T19:11:28.660Z,13.50
2022-10-21T19:13:55.869Z,13.30
2022-10-21T19:16:23.020Z,13.30
2022-10-21T19:18:50.100Z,13.30
2022-10-21T19:21:19.417Z,13.30
2022-10-21T19:23:46.658Z,13.30
2022-10-21T19:26:14.572Z,13.30
2022-10-21T19:28:41.731Z,13.50
2022-10-21T19:31:11.536Z,13.20
2022-10-21T19:33:38.933Z,13.30
2022-10-21T19:36:07.059Z,13.30
2022-10-21T19:38:50.269Z,13.30
2022-10-21T19:41:20.229Z,13.30
2022-10-21T19:43:48.047Z,13.40
2022-10-21T19:46:21.040Z,13.50
2022-10-21T19:48:50.833Z,13.30
2022-10-21T19:51:21.440Z,13.30
2022-10-21T19:53:52.258Z,13.30
2022-10-21T19:56:23.793Z,13.30
2022-10-21T19:58:54.388Z,13.20
2022-10-21T20:01:24.214Z,13.20
2022-10-21T20:03:52.674Z,13.20
2022-10-21T20:06:24.512Z,13.30
2022-10-21T20:08:58.623Z,13.70
2022-10-21T20:11:26.920Z,13.40
2022-10-21T20:13:54.030Z,14.60
2022-10-21T20:16:23.931Z,13.50
2022-10-21T20:18:51.370Z,14.30
2022-10-21T20:21:21.237Z,13.50
2022-10-21T20:26:16.788Z,13.60
2022-10-21T20:31:16.617Z,13.60
2022-10-21T20:33:48.586Z,13.70
2022-10-21T20:36:25.098Z,14.00
2022-10-21T20:38:54.006Z,13.60
2022-10-21T20:41:25.749Z,13.70
2022-10-21T20:43:56.736Z,14.30
2022-10-21T20:46:27.638Z,14.00
2022-10-21T20:48:55.119Z,13.60
2022-10-21T20:51:31.276Z,14.00
2022-10-21T20:54:03.665Z,14.00
2022-10-21T20:56:43.079Z,13.60
2022-10-21T20:59:15.346Z,13.60
2022-10-21T21:01:47.923Z,15.40
2022-10-21T21:04:17.638Z,13.70
2022-10-21T21:06:50.742Z,13.60
2022-10-21T21:09:43.661Z,15.10
2022-10-21T21:12:17.817Z,13.50
2022-10-21T21:14:45.207Z,13.70
2022-10-21T21:22:10.725Z,13.80
2022-10-21T21:27:05.914Z,14.20
2022-10-21T21:29:33.513Z,15.60
2022-10-21T21:32:00.737Z,13.90
2022-10-21T21:36:56.393Z,13.90
2022-10-21T21:39:23.545Z,14.30
2022-10-21T21:44:18.391Z,13.90
2022-10-21T21:46:45.719Z,14.50
2022-10-21T21:54:10.514Z,13.90
2022-10-21T21:56:38.997Z,14.40
2022-10-21T21:59:11.799Z,14.40
2022-10-21T22:01:39.296Z,13.70
2022-10-21T22:06:36.361Z,13.90
2022-10-21T22:09:10.154Z,14.60
2022-10-21T22:14:07.768Z,13.90
2022-10-21T22:16:35.133Z,13.90
2022-10-21T22:19:02.606Z,15.10
2022-10-21T22:21:33.930Z,13.90
2022-10-21T22:26:29.978Z,14.00
2022-10-21T22:28:57.114Z,14.10
2022-10-21T22:31:30.275Z,14.00
2022-10-21T22:34:05.473Z,14.80
2022-10-21T22:36:34.801Z,15.10
2022-10-21T22:41:30.879Z,13.90
2022-10-21T22:43:58.419Z,15.50
2022-10-21T22:46:40.952Z,14.00
2022-10-21T22:51:35.777Z,13.90
2022-10-21T22:54:02.931Z,14.80
2022-10-21T23:01:30.387Z,14.00
2022-10-21T23:04:02.731Z,14.00
2022-10-21T23:06:34.511Z,14.00
2022-10-21T23:09:02.835Z,14.60
2022-10-21T23:11:30.531Z,14.30
2022-10-21T23:14:03.344Z,14.80
2022-10-21T23:16:34.994Z,14.50
2022-10-21T23:19:02.278Z,14.00
2022-10-21T23:21:29.443Z,15.00
2022-10-21T23:23:57.006Z,14.00
2022-10-21T23:26:24.400Z,14.30
2022-10-21T23:48:36.518Z,14.00
2022-10-21T23:51:04.215Z,14.90
2022-10-21T23:53:33.825Z,14.00
2022-10-21T23:58:30.956Z,13.90
